createdAt,value
2022-08-16T00:01:18.393Z,58.93
2022-08-16T00:03:46.647Z,61.33
2022-08-16T00:06:15.408Z,59.77
2022-08-16T00:08:45.924Z,58.23
2022-08-16T00:11:15.228Z,61.23
2022-08-16T00:13:43.933Z,60.37
2022-08-16T00:17:05.839Z,58.40
2022-08-16T00:19:13.619Z,59.70
2022-08-16T00:21:42.264Z,59.60
2022-08-16T00:24:12.133Z,60.40
2022-08-16T00:26:43.921Z,59.00
2022-08-16T00:29:15.687Z,60.20
2022-08-16T00:31:58.808Z,57.83
2022-08-16T00:34:41.379Z,59.27
2022-08-16T00:37:12.601Z,60.67
2022-08-16T00:39:45.385Z,60.10
2022-08-16T00:42:30.296Z,61.00
2022-08-16T00:45:06.527Z,58.40
2022-08-16T00:47:42.500Z,60.80
2022-08-16T00:50:16.657Z,59.93
2022-08-16T00:52:50.216Z,58.20
2022-08-16T00:55:20.579Z,61.27
2022-08-16T00:57:58.613Z,62.03
2022-08-16T01:00:30.194Z,57.93
2022-08-16T01:03:03.967Z,58.63
2022-08-16T01:05:33.096Z,59.37
2022-08-16T01:08:01.298Z,60.60
2022-08-16T01:10:33.538Z,59.17
2022-08-16T01:13:05.645Z,60.50
2022-08-16T01:15:35.390Z,62.07
2022-08-16T01:18:06.868Z,61.70
2022-08-16T01:20:39.005Z,59.70
2022-08-16T01:23:17.049Z,60.03
2022-08-16T01:26:00.050Z,59.00
2022-08-16T01:28:45.345Z,60.37
2022-08-16T01:31:15.787Z,57.70
2022-08-16T01:33:44.683Z,60.90
2022-08-16T01:36:13.102Z,60.23
2022-08-16T01:38:47.061Z,63.27
2022-08-16T01:41:21.247Z,59.90
2022-08-16T01:43:53.886Z,61.17
2022-08-16T01:46:37.210Z,59.23
2022-08-16T01:49:09.970Z,59.00
2022-08-16T01:51:39.195Z,58.53
2022-08-16T01:54:15.360Z,70.00
2022-08-16T01:56:52.643Z,59.00
2022-08-16T01:59:23.362Z,59.50
2022-08-16T02:02:02.661Z,58.60
2022-08-16T02:04:54.607Z,59.67
2022-08-16T02:07:28.690Z,61.10
2022-08-16T02:10:04.778Z,59.40
2022-08-16T02:12:49.482Z,59.20
2022-08-16T02:15:40.398Z,59.50
2022-08-16T02:18:18.545Z,59.27
2022-08-16T02:20:57.853Z,61.87
2022-08-16T02:23:30.028Z,58.60
2022-08-16T02:26:02.419Z,61.20
2022-08-16T02:28:34.971Z,57.43
2022-08-16T02:31:10.215Z,59.23
2022-08-16T02:33:50.620Z,59.00
2022-08-16T02:36:47.736Z,60.47
2022-08-16T02:39:23.121Z,59.03
2022-08-16T02:41:53.790Z,60.60
2022-08-16T02:44:29.315Z,60.00
2022-08-16T02:47:05.984Z,60.87
2022-08-16T02:49:59.133Z,57.83
2022-08-16T02:55:40.876Z,58.50
2022-08-16T02:58:14.817Z,58.57
2022-08-16T03:00:55.988Z,62.40
2022-08-16T03:04:41.197Z,58.40
2022-08-16T03:06:56.731Z,59.80
2022-08-16T03:09:32.519Z,58.77
2022-08-16T03:12:04.136Z,58.37
2022-08-16T03:14:32.476Z,58.30
2022-08-16T03:17:12.740Z,58.83
2022-08-16T03:19:48.477Z,60.30
2022-08-16T03:22:36.880Z,60.80
2022-08-16T03:25:25.083Z,59.40
2022-08-16T03:28:18.912Z,59.53
2022-08-16T03:30:56.674Z,66.03
2022-08-16T03:33:40.470Z,59.10
2022-08-16T03:36:30.164Z,59.40
2022-08-16T03:39:06.139Z,59.40
2022-08-16T03:41:50.091Z,60.30
2022-08-16T03:44:40.743Z,59.40
2022-08-16T03:49:54.952Z,59.03
2022-08-16T03:52:43.710Z,58.93
2022-08-16T03:55:17.498Z,57.77
2022-08-16T03:57:53.911Z,59.60
2022-08-16T04:00:35.848Z,65.40
2022-08-16T04:03:11.472Z,58.47
2022-08-16T04:05:46.650Z,60.37
2022-08-16T04:08:23.184Z,60.03
2022-08-16T04:11:02.305Z,60.50
2022-08-16T04:14:01.187Z,60.50
2022-08-16T04:16:29.783Z,58.30
2022-08-16T04:19:06.485Z,58.83
2022-08-16T04:21:47.168Z,59.50
2022-08-16T04:24:17.093Z,58.60
2022-08-16T04:26:52.174Z,61.00
2022-08-16T04:29:27.238Z,60.50
2022-08-16T04:32:21.482Z,58.63
2022-08-16T04:34:58.523Z,60.77
2022-08-16T04:37:45.555Z,59.60
2022-08-16T04:40:21.464Z,59.33
2022-08-16T04:42:54.909Z,61.00
2022-08-16T04:45:35.966Z,58.47
2022-08-16T04:48:22.153Z,59.37
2022-08-16T04:51:07.889Z,59.33
2022-08-16T04:53:50.627Z,58.43
2022-08-16T04:56:30.604Z,58.77
2022-08-16T04:59:00.091Z,67.03
2022-08-16T05:01:58.248Z,60.57
2022-08-16T05:04:19.862Z,61.47
2022-08-16T05:06:48.041Z,62.80
2022-08-16T05:09:36.572Z,59.70
2022-08-16T05:12:06.440Z,61.00
2022-08-16T05:14:46.476Z,60.37
2022-08-16T05:17:26.433Z,62.20
2022-08-16T05:19:57.253Z,62.47
2022-08-16T05:22:30.086Z,59.03
2022-08-16T05:24:59.269Z,59.73
2022-08-16T05:27:26.935Z,60.27
2022-08-16T05:30:00.808Z,60.93
2022-08-16T05:32:32.616Z,58.67
2022-08-16T05:35:02.203Z,58.30
2022-08-16T05:37:39.995Z,60.73
2022-08-16T05:40:13.050Z,59.97
2022-08-16T05:42:46.021Z,60.97
2022-08-16T05:45:14.134Z,60.97
2022-08-16T05:47:49.454Z,65.20
2022-08-16T05:50:34.457Z,60.60
2022-08-16T05:53:04.248Z,64.30
2022-08-16T05:55:40.822Z,61.80
2022-08-16T05:58:08.629Z,60.00
2022-08-16T06:03:18.717Z,61.10
2022-08-16T06:05:46.456Z,60.00
2022-08-16T06:08:32.343Z,61.13
2022-08-16T06:11:11.115Z,61.37
2022-08-16T06:13:50.477Z,59.60
2022-08-16T06:16:18.811Z,58.80
2022-08-16T06:19:00.286Z,60.97
2022-08-16T06:21:40.491Z,60.50
2022-08-16T06:24:53.979Z,59.40
2022-08-16T06:27:11.906Z,59.73
2022-08-16T06:30:11.316Z,61.03
2022-08-16T06:32:48.418Z,61.57
2022-08-16T06:35:17.485Z,59.30
2022-08-16T06:37:51.184Z,63.33
2022-08-16T06:40:19.527Z,59.50
2022-08-16T06:42:48.517Z,62.10
2022-08-16T06:45:16.714Z,60.57
2022-08-16T06:47:56.110Z,60.37
2022-08-16T06:50:30.002Z,58.73
2022-08-16T06:53:00.506Z,61.63
2022-08-16T06:55:34.108Z,60.30
2022-08-16T06:58:08.193Z,60.90
2022-08-16T07:00:39.344Z,61.83
2022-08-16T07:03:27.183Z,60.57
2022-08-16T07:05:56.892Z,60.77
2022-08-16T07:08:24.874Z,61.00
2022-08-16T07:10:55.458Z,60.20
2022-08-16T07:14:00.574Z,61.37
2022-08-16T07:16:20.810Z,60.47
2022-08-16T07:18:59.133Z,60.60
2022-08-16T07:21:46.573Z,62.90
2022-08-16T07:24:30.468Z,60.70
2022-08-16T07:26:59.001Z,61.70
2022-08-16T07:29:31.658Z,62.20
2022-08-16T07:32:00.826Z,63.47
2022-08-16T07:34:35.261Z,61.70
2022-08-16T07:37:11.454Z,62.07
2022-08-16T07:39:42.914Z,63.13
2022-08-16T07:42:10.626Z,62.03
2022-08-16T07:44:50.691Z,61.93
2022-08-16T07:47:18.608Z,63.97
2022-08-16T07:49:53.192Z,60.60
2022-08-16T07:52:29.690Z,62.40
2022-08-16T07:54:57.835Z,63.20
2022-08-16T07:57:26.440Z,61.40
2022-08-16T07:59:57.395Z,63.30
2022-08-16T08:02:27.177Z,62.03
2022-08-16T08:04:55.975Z,64.10
2022-08-16T08:07:27.470Z,63.97
2022-08-16T08:09:56.566Z,61.80
2022-08-16T08:12:32.054Z,62.77
2022-08-16T08:15:09.581Z,62.90
2022-08-16T08:17:43.009Z,63.43
2022-08-16T08:20:20.780Z,62.17
2022-08-16T08:23:03.388Z,61.40
2022-08-16T08:25:52.089Z,63.90
2022-08-16T08:28:19.891Z,62.60
2022-08-16T08:31:00.847Z,62.33
2022-08-16T08:33:31.349Z,60.77
2022-08-16T08:36:12.373Z,63.10
2022-08-16T08:38:51.174Z,61.30
2022-08-16T08:41:23.600Z,61.97
2022-08-16T08:43:57.146Z,63.40
2022-08-16T08:46:29.010Z,62.03
2022-08-16T08:49:10.976Z,63.13
2022-08-16T08:51:39.161Z,63.00
2022-08-16T08:54:10.173Z,62.53
2022-08-16T08:56:45.995Z,62.87
2022-08-16T08:59:20.111Z,62.50
2022-08-16T09:01:57.773Z,63.47
2022-08-16T09:04:26.942Z,60.93
2022-08-16T09:06:55.037Z,62.47
2022-08-16T09:09:23.067Z,64.87
2022-08-16T09:12:04.253Z,61.23
2022-08-16T09:14:49.490Z,64.40
2022-08-16T09:20:13.536Z,63.60
2022-08-16T09:22:42.880Z,66.13
2022-08-16T09:25:35.374Z,63.00
2022-08-16T09:28:09.505Z,62.67
2022-08-16T09:30:45.865Z,63.47
2022-08-16T09:36:45.070Z,62.27
2022-08-16T09:39:15.797Z,61.70
2022-08-16T09:41:54.438Z,66.03
2022-08-16T09:45:12.368Z,63.00
2022-08-16T09:47:12.262Z,64.17
2022-08-16T09:49:42.563Z,62.00
2022-08-16T09:52:11.545Z,64.70
2022-08-16T09:54:44.349Z,63.60
2022-08-16T09:57:12.489Z,62.77
2022-08-16T09:59:41.997Z,61.60
2022-08-16T10:02:26.412Z,64.30
2022-08-16T10:04:57.902Z,60.93
2022-08-16T10:07:26.325Z,65.03
2022-08-16T10:10:12.572Z,63.50
2022-08-16T10:13:07.370Z,65.43
2022-08-16T10:15:36.148Z,63.97
2022-08-16T10:18:56.124Z,66.40
2022-08-16T10:21:06.685Z,63.10
2022-08-16T10:23:54.449Z,62.13
2022-08-16T10:27:20.022Z,62.47
2022-08-16T10:30:01.033Z,62.67
2022-08-16T10:39:17.709Z,64.97
2022-08-16T10:45:13.811Z,61.77
2022-08-16T10:48:27.748Z,61.70
2022-08-16T10:52:01.735Z,62.60
2022-08-16T10:57:57.076Z,63.30
2022-08-16T11:00:24.846Z,62.30
2022-08-16T11:02:59.421Z,62.30
2022-08-16T11:05:59.076Z,61.10
2022-08-16T11:08:23.588Z,64.33
2022-08-16T11:11:12.700Z,62.17
2022-08-16T11:19:17.552Z,62.00
2022-08-16T11:24:42.627Z,60.47
2022-08-16T11:27:19.658Z,61.23
2022-08-16T11:29:49.766Z,60.67
2022-08-16T11:32:22.668Z,60.10
2022-08-16T11:35:10.743Z,60.60
2022-08-16T11:40:32.360Z,62.60
2022-08-16T11:43:04.594Z,61.63
2022-08-16T11:45:33.890Z,62.67
2022-08-16T11:48:02.813Z,64.30
2022-08-16T11:50:33.466Z,60.40
2022-08-16T11:53:02.430Z,61.23
2022-08-16T11:55:32.271Z,60.37
2022-08-16T11:58:00.149Z,64.23
2022-08-16T12:00:35.224Z,61.17
2022-08-16T12:03:19.142Z,61.80
2022-08-16T12:05:51.960Z,64.10
2022-08-16T12:08:26.019Z,63.03
2022-08-16T12:10:59.419Z,62.57
2022-08-16T12:13:31.213Z,61.17
2022-08-16T12:16:03.235Z,60.20
2022-08-16T12:18:40.613Z,61.87
2022-08-16T12:21:09.836Z,62.37
2022-08-16T12:23:38.048Z,60.23
2022-08-16T12:26:10.238Z,60.33
2022-08-16T12:28:55.161Z,60.13
2022-08-16T12:31:26.204Z,60.23
2022-08-16T12:33:55.988Z,59.80
2022-08-16T12:36:30.095Z,59.77
2022-08-16T12:39:00.697Z,64.17
2022-08-16T12:41:29.087Z,61.73
2022-08-16T12:44:06.284Z,65.63
2022-08-16T12:46:36.135Z,61.57
2022-08-16T12:49:05.782Z,60.40
2022-08-16T12:51:59.046Z,62.07
2022-08-16T12:54:25.094Z,60.90
2022-08-16T12:56:53.118Z,59.30
2022-08-16T12:59:23.793Z,61.47
2022-08-16T13:01:55.425Z,61.50
2022-08-16T13:04:27.996Z,63.03
2022-08-16T13:09:42.091Z,60.40
2022-08-16T13:12:20.020Z,62.97
2022-08-16T13:14:50.289Z,60.80
2022-08-16T13:17:23.276Z,61.43
2022-08-16T13:20:11.124Z,61.93
2022-08-16T13:22:41.338Z,58.83
2022-08-16T13:25:14.082Z,62.83
2022-08-16T13:28:03.338Z,65.90
2022-08-16T13:30:36.345Z,59.37
2022-08-16T13:33:12.512Z,63.13
2022-08-16T13:35:44.236Z,60.50
2022-08-16T13:38:24.647Z,59.67
2022-08-16T13:40:55.970Z,59.93
2022-08-16T13:43:25.043Z,59.90
2022-08-16T13:45:55.403Z,59.70
2022-08-16T13:48:26.180Z,59.90
2022-08-16T13:50:56.315Z,62.10
2022-08-16T13:53:24.975Z,60.57
2022-08-16T13:55:57.913Z,62.63
2022-08-16T13:58:36.516Z,62.10
2022-08-16T14:01:17.123Z,61.87
2022-08-16T14:03:46.977Z,59.50
2022-08-16T14:06:15.532Z,63.00
2022-08-16T14:08:59.046Z,59.67
2022-08-16T14:11:34.847Z,60.50
2022-08-16T14:14:05.624Z,61.90
2022-08-16T14:16:34.733Z,59.23
2022-08-16T14:19:06.920Z,62.67
2022-08-16T14:21:35.842Z,59.80
2022-08-16T14:24:16.647Z,60.10
2022-08-16T14:26:50.316Z,61.20
2022-08-16T14:31:53.918Z,61.37
2022-08-16T14:34:25.657Z,60.30
2022-08-16T14:36:57.463Z,61.03
2022-08-16T14:39:27.264Z,65.10
2022-08-16T14:41:55.777Z,61.77
2022-08-16T14:44:26.124Z,60.63
2022-08-16T14:46:54.772Z,60.43
2022-08-16T14:49:24.870Z,61.13
2022-08-16T14:51:52.702Z,61.07
2022-08-16T14:54:21.710Z,59.17
2022-08-16T14:56:55.260Z,64.33
2022-08-16T14:59:23.415Z,60.07
2022-08-16T15:01:59.004Z,62.17
2022-08-16T15:04:32.528Z,61.03
2022-08-16T15:07:10.135Z,60.27
2022-08-16T15:09:44.127Z,61.83
2022-08-16T15:12:32.850Z,63.07
2022-08-16T15:15:12.236Z,61.43
2022-08-16T15:17:54.251Z,61.30
2022-08-16T15:20:29.175Z,62.57
2022-08-16T15:22:59.260Z,62.30
2022-08-16T15:25:30.165Z,62.23
2022-08-16T15:27:58.603Z,61.27
2022-08-16T15:30:57.291Z,62.30
2022-08-16T15:33:18.213Z,64.03
2022-08-16T15:35:53.006Z,62.77
2022-08-16T15:38:56.943Z,62.43
2022-08-16T15:41:54.140Z,69.77
2022-08-16T15:44:24.812Z,62.30
2022-08-16T15:46:56.454Z,60.73
2022-08-16T15:49:37.296Z,60.03
2022-08-16T15:52:11.487Z,61.20
2022-08-16T15:54:51.404Z,61.40
2022-08-16T15:57:22.650Z,61.43
2022-08-16T15:59:52.679Z,61.23
2022-08-16T16:02:29.556Z,64.17
2022-08-16T16:05:01.783Z,60.17
2022-08-16T16:07:33.170Z,61.53
2022-08-16T16:10:02.018Z,61.90
2022-08-16T16:12:51.368Z,60.83
2022-08-16T16:15:22.881Z,62.40
2022-08-16T16:17:52.549Z,62.40
2022-08-16T16:20:22.207Z,62.60
2022-08-16T16:22:53.992Z,61.70
2022-08-16T16:25:21.637Z,62.50
2022-08-16T16:27:55.308Z,60.53
2022-08-16T16:30:34.493Z,61.97
2022-08-16T16:33:15.834Z,63.33
2022-08-16T16:35:55.539Z,59.97
2022-08-16T16:38:28.819Z,63.23
2022-08-16T16:40:57.652Z,64.93
2022-08-16T16:43:31.322Z,62.70
2022-08-16T16:45:59.876Z,62.70
2022-08-16T16:48:34.612Z,60.13
2022-08-16T16:51:09.169Z,65.00
2022-08-16T16:53:42.269Z,62.50
2022-08-16T16:56:20.418Z,61.90
2022-08-16T17:02:38.146Z,63.70
2022-08-16T17:04:47.244Z,61.23
2022-08-16T17:07:15.401Z,61.37
2022-08-16T17:09:45.793Z,62.57
2022-08-16T17:12:24.998Z,60.23
2022-08-16T17:15:02.952Z,61.93
2022-08-16T17:17:59.274Z,61.43
2022-08-16T17:20:20.805Z,61.03
2022-08-16T17:22:55.075Z,63.50
2022-08-16T17:25:25.380Z,61.10
2022-08-16T17:27:53.078Z,62.43
2022-08-16T17:30:29.592Z,61.77
2022-08-16T17:33:13.249Z,62.00
2022-08-16T17:35:45.817Z,60.60
2022-08-16T17:38:39.298Z,62.30
2022-08-16T17:41:15.539Z,70.63
2022-08-16T17:43:45.032Z,67.83
2022-08-16T17:46:41.475Z,67.10
2022-08-16T17:49:01.900Z,68.97
2022-08-16T17:51:29.510Z,68.40
2022-08-16T17:53:57.619Z,70.77
2022-08-16T17:56:26.638Z,69.73
2022-08-16T17:58:54.505Z,70.47
2022-08-16T18:01:26.313Z,68.37
2022-08-16T18:04:07.180Z,70.07
2022-08-16T18:06:37.610Z,68.90
2022-08-16T18:09:05.633Z,68.73
2022-08-16T18:11:41.058Z,68.90
2022-08-16T18:14:13.222Z,69.20
2022-08-16T18:16:41.283Z,66.37
2022-08-16T18:19:09.163Z,68.03
2022-08-16T18:21:54.841Z,68.03
2022-08-16T18:24:22.944Z,68.97
2022-08-16T18:26:52.333Z,66.97
2022-08-16T18:29:21.321Z,70.00
2022-08-16T18:31:50.920Z,70.67
2022-08-16T18:34:20.750Z,67.07
2022-08-16T18:36:48.415Z,67.77
2022-08-16T18:39:16.375Z,70.70
2022-08-16T18:41:47.014Z,66.57
2022-08-16T18:44:25.652Z,68.63
2022-08-16T18:46:55.507Z,70.17
2022-08-16T18:49:23.304Z,69.90
2022-08-16T18:51:51.035Z,67.67
2022-08-16T18:54:19.536Z,69.63
2022-08-16T18:56:54.233Z,67.43
2022-08-16T18:59:28.089Z,71.73
2022-08-16T19:02:00.400Z,69.47
2022-08-16T19:04:48.984Z,68.33
2022-08-16T19:07:22.244Z,69.70
2022-08-16T19:09:50.010Z,70.07
2022-08-16T19:12:17.647Z,68.27
2022-08-16T19:15:11.983Z,68.60
2022-08-16T19:17:41.283Z,68.40
2022-08-16T19:20:11.016Z,66.97
2022-08-16T19:25:47.514Z,68.40
2022-08-16T19:28:48.837Z,71.60
2022-08-16T19:31:10.723Z,71.83
2022-08-16T19:33:38.801Z,67.97
2022-08-16T19:36:06.928Z,72.40
2022-08-16T19:38:39.370Z,67.73
2022-08-16T19:41:07.409Z,68.80
2022-08-16T19:43:35.627Z,68.73
2022-08-16T19:46:04.170Z,69.70
2022-08-16T19:48:33.245Z,70.53
2022-08-16T19:51:01.405Z,68.30
2022-08-16T19:53:29.503Z,67.20
2022-08-16T19:55:58.249Z,68.33
2022-08-16T19:58:27.623Z,71.93
2022-08-16T20:00:56.454Z,67.00
2022-08-16T20:03:24.964Z,67.70
2022-08-16T20:05:54.027Z,66.70
2022-08-16T20:08:22.206Z,69.53
2022-08-16T20:10:50.728Z,69.27
2022-08-16T20:13:21.220Z,71.10
2022-08-16T20:15:50.404Z,66.63
2022-08-16T20:18:24.382Z,71.67
2022-08-16T20:20:55.345Z,66.40
2022-08-16T20:23:25.319Z,68.13
2022-08-16T20:25:55.441Z,67.77
2022-08-16T20:28:51.012Z,71.80
2022-08-16T20:31:11.814Z,70.70
2022-08-16T20:33:39.608Z,66.17
2022-08-16T20:36:09.326Z,69.20
2022-08-16T20:38:46.789Z,68.67
2022-08-16T20:41:14.785Z,69.53
2022-08-16T20:43:42.726Z,69.37
2022-08-16T20:46:11.186Z,73.23
2022-08-16T20:48:38.834Z,72.50
2022-08-16T20:51:10.552Z,66.47
2022-08-16T20:53:38.672Z,70.80
2022-08-16T20:56:07.675Z,69.30
2022-08-16T20:58:35.303Z,71.23
2022-08-16T21:01:03.464Z,67.07
2022-08-16T21:03:31.326Z,66.33
2022-08-16T21:05:59.485Z,68.80
2022-08-16T21:08:53.619Z,67.60
2022-08-16T21:11:16.900Z,71.83
2022-08-16T21:13:44.482Z,69.73
2022-08-16T21:16:12.095Z,69.80
2022-08-16T21:18:39.699Z,70.03
2022-08-16T21:21:07.281Z,68.47
2022-08-16T21:23:36.244Z,69.60
2022-08-16T21:26:05.760Z,68.30
2022-08-16T21:28:43.333Z,67.13
2022-08-16T21:31:11.692Z,71.30
2022-08-16T21:33:40.751Z,67.57
2022-08-16T21:36:09.069Z,71.53
2022-08-16T21:38:38.429Z,72.10
2022-08-16T21:41:07.972Z,66.97
2022-08-16T21:43:35.838Z,74.13
2022-08-16T21:46:05.266Z,71.27
2022-08-16T21:48:35.787Z,69.63
2022-08-16T21:51:05.158Z,67.80
2022-08-16T21:53:34.099Z,66.93
2022-08-16T21:56:03.184Z,68.50
2022-08-16T21:58:31.957Z,69.50
2022-08-16T22:01:00.735Z,68.93
2022-08-16T22:03:29.984Z,67.03
2022-08-16T22:06:11.037Z,67.30
2022-08-16T22:08:49.323Z,66.20
2022-08-16T22:11:20.142Z,69.83
2022-08-16T22:13:58.357Z,66.73
2022-08-16T22:16:28.767Z,68.17
2022-08-16T22:18:56.548Z,71.67
2022-08-16T22:21:24.633Z,68.63
2022-08-16T22:23:57.168Z,67.87
2022-08-16T22:26:30.486Z,71.10
2022-08-16T22:29:00.128Z,69.03
2022-08-16T22:31:27.740Z,71.63
2022-08-16T22:33:56.505Z,66.47
2022-08-16T22:36:24.259Z,68.63
2022-08-16T22:38:58.058Z,69.73
2022-08-16T22:41:29.073Z,71.33
2022-08-16T22:43:57.523Z,66.87
2022-08-16T22:46:25.314Z,71.57
2022-08-16T22:48:53.115Z,70.63
2022-08-16T22:51:23.033Z,72.43
2022-08-16T22:53:50.964Z,65.93
2022-08-16T22:56:18.827Z,70.73
2022-08-16T22:58:49.061Z,66.23
2022-08-16T23:01:18.484Z,68.00
2022-08-16T23:03:46.219Z,65.77
2022-08-16T23:06:14.748Z,70.33
2022-08-16T23:08:43.472Z,69.67
2022-08-16T23:11:14.421Z,67.50
2022-08-16T23:13:49.969Z,68.53
2022-08-16T23:16:33.502Z,69.60
2022-08-16T23:19:02.664Z,67.60
2022-08-16T23:21:30.450Z,67.20
2022-08-16T23:23:58.247Z,68.17
2022-08-16T23:26:46.735Z,72.83
2022-08-16T23:29:22.143Z,69.10
2022-08-16T23:31:56.137Z,69.20
2022-08-16T23:34:24.198Z,71.63
2022-08-16T23:36:51.820Z,69.10
2022-08-16T23:39:19.534Z,73.67
2022-08-16T23:41:47.131Z,67.90
2022-08-16T23:44:56.700Z,69.00
2022-08-16T23:47:05.228Z,67.50
2022-08-16T23:49:57.983Z,68.97
2022-08-16T23:52:53.370Z,69.83
2022-08-16T23:55:09.086Z,66.50
2022-08-16T23:57:37.453Z,68.73
